sensor_id;sensor_type;location;lat;lon;timestamp;pressure;altitude;pressure_sealevel;temperature;humidity
54936;BME280;40838;50.676;7.838;2023-07-13T00:01:22;98323.59;;;13.64;100.00
54936;BME280;40838;50.676;7.838;2023-07-13T00:03:49;98325.47;;;13.59;100.00
54936;BME280;40838;50.676;7.838;2023-07-13T00:06:16;98323.09;;;13.57;100.00
54936;BME280;40838;50.676;7.838;2023-07-13T00:08:45;98321.53;;;13.51;100.00
54936;BME280;40838;50.676;7.838;2023-07-13T00:11:20;98314.59;;;13.55;100.00
54936;BME280;40838;50.676;7.838;2023-07-13T00:13:47;98310.63;;;13.42;100.00
54936;BME280;40838;50.676;7.838;2023-07-13T00:16:15;98307.44;;;13.35;100.00
54936;BME280;40838;50.676;7.838;2023-07-13T00:18:45;98310.94;;;13.26;100.00
54936;BME280;40838;50.676;7.838;2023-07-13T00:21:12;98305.63;;;13.20;100.00
54936;BME280;40838;50.676;7.838;2023-07-13T00:23:41;98308.03;;;13.12;100.00
54936;BME280;40838;50.676;7.838;2023-07-13T00:26:10;98310.97;;;12.95;100.00
54936;BME280;40838;50.676;7.838;2023-07-13T00:28:40;98304.03;;;12.94;100.00
54936;BME280;40838;50.676;7.838;2023-07-13T00:31:10;98302.22;;;12.89;100.00
54936;BME280;40838;50.676;7.838;2023-07-13T00:33:43;98300.34;;;12.85;100.00
54936;BME280;40838;50.676;7.838;2023-07-13T00:36:29;98304.06;;;12.84;100.00
54936;BME280;40838;50.676;7.838;2023-07-13T00:38:57;98307.78;;;12.72;100.00
54936;BME280;40838;50.676;7.838;2023-07-13T00:41:23;98302.19;;;12.59;100.00
54936;BME280;40838;50.676;7.838;2023-07-13T00:43:50;98302.47;;;12.57;100.00
54936;BME280;40838;50.676;7.838;2023-07-13T00:46:21;98299.25;;;12.55;100.00
54936;BME280;40838;50.676;7.838;2023-07-13T00:48:51;98299.28;;;12.60;100.00
54936;BME280;40838;50.676;7.838;2023-07-13T00:51:27;98304.59;;;12.60;100.00
54936;BME280;40838;50.676;7.838;2023-07-13T00:53:59;98308.50;;;12.47;100.00
54936;BME280;40838;50.676;7.838;2023-07-13T00:56:28;98316.16;;;12.23;100.00
54936;BME280;40838;50.676;7.838;2023-07-13T00:58:59;98312.84;;;11.86;100.00
54936;BME280;40838;50.676;7.838;2023-07-13T01:01:27;98304.94;;;11.96;100.00
54936;BME280;40838;50.676;7.838;2023-07-13T01:03:56;98310.78;;;12.03;100.00
54936;BME280;40838;50.676;7.838;2023-07-13T01:06:24;98315.06;;;12.09;100.00
54936;BME280;40838;50.676;7.838;2023-07-13T01:08:52;98320.53;;;11.82;100.00
54936;BME280;40838;50.676;7.838;2023-07-13T01:11:19;98312.78;;;11.70;100.00
54936;BME280;40838;50.676;7.838;2023-07-13T01:13:48;98314.88;;;11.68;100.00
54936;BME280;40838;50.676;7.838;2023-07-13T01:16:21;98316.50;;;11.69;100.00
54936;BME280;40838;50.676;7.838;2023-07-13T01:18:48;98320.34;;;11.46;100.00
54936;BME280;40838;50.676;7.838;2023-07-13T01:21:17;98313.56;;;11.23;100.00
54936;BME280;40838;50.676;7.838;2023-07-13T01:23:46;98327.56;;;11.19;100.00
54936;BME280;40838;50.676;7.838;2023-07-13T01:26:13;98316.94;;;11.13;100.00
54936;BME280;40838;50.676;7.838;2023-07-13T01:28:43;98323.72;;;10.99;100.00
54936;BME280;40838;50.676;7.838;2023-07-13T01:31:10;98305.94;;;10.94;100.00
54936;BME280;40838;50.676;7.838;2023-07-13T01:33:40;98313.91;;;11.00;100.00
54936;BME280;40838;50.676;7.838;2023-07-13T01:36:10;98316.19;;;10.86;100.00
54936;BME280;40838;50.676;7.838;2023-07-13T01:38:42;98310.72;;;10.65;100.00
54936;BME280;40838;50.676;7.838;2023-07-13T01:41:10;98315.38;;;10.53;100.00
54936;BME280;40838;50.676;7.838;2023-07-13T01:43:36;98306.69;;;10.58;100.00
54936;BME280;40838;50.676;7.838;2023-07-13T01:46:06;98311.16;;;10.52;100.00
54936;BME280;40838;50.676;7.838;2023-07-13T01:48:35;98309.34;;;10.58;100.00
54936;BME280;40838;50.676;7.838;2023-07-13T01:51:04;98312.19;;;10.51;100.00
54936;BME280;40838;50.676;7.838;2023-07-13T01:53:30;98312.53;;;10.33;100.00
54936;BME280;40838;50.676;7.838;2023-07-13T01:56:01;98302.16;;;10.26;100.00
54936;BME280;40838;50.676;7.838;2023-07-13T01:58:27;98309.41;;;10.14;100.00
54936;BME280;40838;50.676;7.838;2023-07-13T02:00:54;98306.31;;;10.22;100.00
54936;BME280;40838;50.676;7.838;2023-07-13T02:03:23;98313.97;;;10.18;100.00
54936;BME280;40838;50.676;7.838;2023-07-13T02:05:52;98309.81;;;10.28;100.00
54936;BME280;40838;50.676;7.838;2023-07-13T02:08:19;98310.75;;;10.16;100.00
54936;BME280;40838;50.676;7.838;2023-07-13T02:10:46;98311.38;;;10.23;100.00
54936;BME280;40838;50.676;7.838;2023-07-13T02:13:14;98302.97;;;10.05;100.00
54936;BME280;40838;50.676;7.838;2023-07-13T02:15:41;98311.81;;;9.93;100.00
54936;BME280;40838;50.676;7.838;2023-07-13T02:18:08;98313.44;;;9.94;100.00
54936;BME280;40838;50.676;7.838;2023-07-13T02:20:35;98312.59;;;9.89;100.00
54936;BME280;40838;50.676;7.838;2023-07-13T02:23:02;98317.38;;;9.92;100.00
54936;BME280;40838;50.676;7.838;2023-07-13T02:25:28;98308.75;;;9.79;100.00
54936;BME280;40838;50.676;7.838;2023-07-13T02:27:55;98317.66;;;9.73;100.00
54936;BME280;40838;50.676;7.838;2023-07-13T02:30:23;98325.13;;;9.81;100.00
54936;BME280;40838;50.676;7.838;2023-07-13T02:32:53;98324.69;;;9.85;100.00
54936;BME280;40838;50.676;7.838;2023-07-13T02:35:20;98325.59;;;9.95;100.00
54936;BME280;40838;50.676;7.838;2023-07-13T02:37:47;98321.94;;;9.96;100.00
54936;BME280;40838;50.676;7.838;2023-07-13T02:40:14;98319.81;;;9.98;100.00
54936;BME280;40838;50.676;7.838;2023-07-13T02:42:41;98330.41;;;9.98;100.00
54936;BME280;40838;50.676;7.838;2023-07-13T02:45:09;98329.38;;;9.99;100.00
54936;BME280;40838;50.676;7.838;2023-07-13T02:47:37;98326.03;;;9.87;100.00
54936;BME280;40838;50.676;7.838;2023-07-13T02:50:06;98324.03;;;9.77;100.00
54936;BME280;40838;50.676;7.838;2023-07-13T02:52:33;98332.22;;;9.76;100.00
54936;BME280;40838;50.676;7.838;2023-07-13T02:55:01;98325.31;;;9.75;100.00
54936;BME280;40838;50.676;7.838;2023-07-13T02:57:27;98326.13;;;9.75;100.00
54936;BME280;40838;50.676;7.838;2023-07-13T02:59:54;98332.94;;;9.71;100.00
54936;BME280;40838;50.676;7.838;2023-07-13T03:02:22;98331.28;;;9.65;100.00
54936;BME280;40838;50.676;7.838;2023-07-13T03:04:57;98331.09;;;9.72;100.00
54936;BME280;40838;50.676;7.838;2023-07-13T03:07:24;98324.72;;;9.68;100.00
54936;BME280;40838;50.676;7.838;2023-07-13T03:09:54;98333.84;;;9.60;100.00
54936;BME280;40838;50.676;7.838;2023-07-13T03:12:34;98341.47;;;9.56;100.00
54936;BME280;40838;50.676;7.838;2023-07-13T03:15:05;98330.59;;;9.53;100.00
54936;BME280;40838;50.676;7.838;2023-07-13T03:17:35;98340.44;;;9.57;100.00
54936;BME280;40838;50.676;7.838;2023-07-13T03:20:05;98329.09;;;9.40;100.00
54936;BME280;40838;50.676;7.838;2023-07-13T03:22:35;98334.47;;;9.28;100.00
54936;BME280;40838;50.676;7.838;2023-07-13T03:25:03;98332.16;;;9.15;100.00
54936;BME280;40838;50.676;7.838;2023-07-13T03:27:32;98338.47;;;9.31;100.00
54936;BME280;40838;50.676;7.838;2023-07-13T03:29:59;98337.19;;;9.17;100.00
54936;BME280;40838;50.676;7.838;2023-07-13T03:32:26;98342.56;;;9.22;100.00
54936;BME280;40838;50.676;7.838;2023-07-13T03:34:55;98340.31;;;9.13;100.00
54936;BME280;40838;50.676;7.838;2023-07-13T03:37:24;98348.50;;;9.12;100.00
54936;BME280;40838;50.676;7.838;2023-07-13T03:40:12;98350.16;;;9.35;100.00
54936;BME280;40838;50.676;7.838;2023-07-13T03:42:42;98342.06;;;9.42;100.00
54936;BME280;40838;50.676;7.838;2023-07-13T03:45:12;98351.09;;;9.46;100.00
54936;BME280;40838;50.676;7.838;2023-07-13T03:47:38;98356.78;;;9.54;100.00
54936;BME280;40838;50.676;7.838;2023-07-13T03:50:06;98351.41;;;9.49;100.00
54936;BME280;40838;50.676;7.838;2023-07-13T03:52:35;98349.78;;;9.65;100.00
54936;BME280;40838;50.676;7.838;2023-07-13T03:55:02;98356.81;;;9.76;100.00
54936;BME280;40838;50.676;7.838;2023-07-13T03:57:29;98353.19;;;9.83;100.00
54936;BME280;40838;50.676;7.838;2023-07-13T03:59:57;98354.06;;;10.10;100.00
54936;BME280;40838;50.676;7.838;2023-07-13T04:02:24;98348.00;;;10.32;100.00
54936;BME280;40838;50.676;7.838;2023-07-13T04:04:53;98345.19;;;10.43;100.00
54936;BME280;40838;50.676;7.838;2023-07-13T04:07:21;98352.72;;;10.57;100.00
54936;BME280;40838;50.676;7.838;2023-07-13T04:09:49;98359.66;;;10.63;100.00
54936;BME280;40838;50.676;7.838;2023-07-13T04:12:18;98353.94;;;10.71;100.00
54936;BME280;40838;50.676;7.838;2023-07-13T04:14:51;98356.63;;;10.76;100.00
54936;BME280;40838;50.676;7.838;2023-07-13T04:17:20;98353.22;;;10.81;100.00
54936;BME280;40838;50.676;7.838;2023-07-13T04:19:47;98366.06;;;11.26;100.00
54936;BME280;40838;50.676;7.838;2023-07-13T04:22:16;98367.13;;;11.25;100.00
54936;BME280;40838;50.676;7.838;2023-07-13T04:24:42;98363.75;;;11.35;100.00
54936;BME280;40838;50.676;7.838;2023-07-13T04:27:14;98359.91;;;11.58;100.00
54936;BME280;40838;50.676;7.838;2023-07-13T04:29:42;98358.22;;;11.42;100.00
54936;BME280;40838;50.676;7.838;2023-07-13T04:32:10;98363.69;;;11.30;100.00
54936;BME280;40838;50.676;7.838;2023-07-13T04:34:37;98363.69;;;11.30;100.00
54936;BME280;40838;50.676;7.838;2023-07-13T04:37:05;98369.38;;;11.11;100.00
54936;BME280;40838;50.676;7.838;2023-07-13T04:39:32;98363.75;;;11.03;100.00
54936;BME280;40838;50.676;7.838;2023-07-13T04:41:59;98373.38;;;10.87;100.00
54936;BME280;40838;50.676;7.838;2023-07-13T04:44:27;98369.78;;;10.98;100.00
54936;BME280;40838;50.676;7.838;2023-07-13T04:46:56;98368.75;;;10.99;100.00
54936;BME280;40838;50.676;7.838;2023-07-13T04:49:23;98366.28;;;10.92;100.00
54936;BME280;40838;50.676;7.838;2023-07-13T04:51:50;98375.91;;;10.99;100.00
54936;BME280;40838;50.676;7.838;2023-07-13T04:54:16;98375.91;;;11.04;100.00
54936;BME280;40838;50.676;7.838;2023-07-13T04:56:47;98381.78;;;11.06;100.00
54936;BME280;40838;50.676;7.838;2023-07-13T04:59:14;98376.03;;;11.19;100.00
54936;BME280;40838;50.676;7.838;2023-07-13T05:01:43;98382.38;;;10.86;100.00
54936;BME280;40838;50.676;7.838;2023-07-13T05:04:15;98371.44;;;11.36;100.00
54936;BME280;40838;50.676;7.838;2023-07-13T05:06:42;98374.94;;;11.15;100.00
54936;BME280;40838;50.676;7.838;2023-07-13T05:09:09;98374.72;;;11.54;100.00
54936;BME280;40838;50.676;7.838;2023-07-13T05:11:35;98377.50;;;11.74;100.00
54936;BME280;40838;50.676;7.838;2023-07-13T05:14:02;98376.06;;;11.56;100.00
54936;BME280;40838;50.676;7.838;2023-07-13T05:16:29;98375.97;;;11.89;100.00
54936;BME280;40838;50.676;7.838;2023-07-13T05:19:00;98364.94;;;12.07;100.00
54936;BME280;40838;50.676;7.838;2023-07-13T05:21:28;98378.00;;;12.19;100.00
54936;BME280;40838;50.676;7.838;2023-07-13T05:23:55;98375.91;;;14.05;100.00
54936;BME280;40838;50.676;7.838;2023-07-13T05:26:22;98364.69;;;17.87;100.00
54936;BME280;40838;50.676;7.838;2023-07-13T05:28:58;98378.66;;;19.43;100.00
54936;BME280;40838;50.676;7.838;2023-07-13T05:31:25;98374.47;;;20.92;93.67
54936;BME280;40838;50.676;7.838;2023-07-13T05:33:52;98371.41;;;22.22;86.40
54936;BME280;40838;50.676;7.838;2023-07-13T05:36:27;98380.41;;;22.77;84.83
54936;BME280;40838;50.676;7.838;2023-07-13T05:38:54;98383.75;;;23.61;77.22
54936;BME280;40838;50.676;7.838;2023-07-13T05:41:27;98386.97;;;23.42;75.27
54936;BME280;40838;50.676;7.838;2023-07-13T05:43:54;98386.38;;;24.31;71.04
54936;BME280;40838;50.676;7.838;2023-07-13T05:46:20;98388.50;;;24.62;69.94
54936;BME280;40838;50.676;7.838;2023-07-13T05:48:50;98376.59;;;25.51;65.04
54936;BME280;40838;50.676;7.838;2023-07-13T05:51:17;98387.00;;;25.65;64.25
54936;BME280;40838;50.676;7.838;2023-07-13T05:53:46;98395.69;;;23.60;71.96
54936;BME280;40838;50.676;7.838;2023-07-13T05:56:13;98390.91;;;24.80;69.22
54936;BME280;40838;50.676;7.838;2023-07-13T05:58:45;98381.41;;;25.58;62.48
54936;BME280;40838;50.676;7.838;2023-07-13T06:01:13;98383.19;;;24.66;66.81
54936;BME280;40838;50.676;7.838;2023-07-13T06:03:40;98393.44;;;24.60;67.93
54936;BME280;40838;50.676;7.838;2023-07-13T06:06:09;98389.09;;;25.40;64.14
54936;BME280;40838;50.676;7.838;2023-07-13T06:08:38;98390.84;;;25.48;65.15
54936;BME280;40838;50.676;7.838;2023-07-13T06:11:12;98390.25;;;25.87;61.27
54936;BME280;40838;50.676;7.838;2023-07-13T06:13:40;98401.56;;;23.74;71.03
54936;BME280;40838;50.676;7.838;2023-07-13T06:16:08;98396.75;;;24.54;67.30
54936;BME280;40838;50.676;7.838;2023-07-13T06:18:36;98397.97;;;24.56;67.92
54936;BME280;40838;50.676;7.838;2023-07-13T06:21:06;98392.78;;;25.48;62.04
54936;BME280;40838;50.676;7.838;2023-07-13T06:23:34;98392.53;;;27.49;55.45
54936;BME280;40838;50.676;7.838;2023-07-13T06:26:25;98401.31;;;26.45;57.42
54936;BME280;40838;50.676;7.838;2023-07-13T06:28:56;98398.88;;;25.45;58.60
54936;BME280;40838;50.676;7.838;2023-07-13T06:31:23;98408.94;;;23.98;70.00
54936;BME280;40838;50.676;7.838;2023-07-13T06:33:50;98398.97;;;25.48;62.95
54936;BME280;40838;50.676;7.838;2023-07-13T06:36:17;98409.78;;;25.32;63.88
54936;BME280;40838;50.676;7.838;2023-07-13T06:38:50;98408.63;;;22.58;75.01
54936;BME280;40838;50.676;7.838;2023-07-13T06:41:16;98408.63;;;24.77;68.95
54936;BME280;40838;50.676;7.838;2023-07-13T06:43:46;98396.66;;;25.34;66.22
54936;BME280;40838;50.676;7.838;2023-07-13T06:46:28;98421.28;;;24.49;65.16
54936;BME280;40838;50.676;7.838;2023-07-13T06:48:58;98409.69;;;25.01;65.70
54936;BME280;40838;50.676;7.838;2023-07-13T06:51:28;98418.72;;;24.28;67.98
54936;BME280;40838;50.676;7.838;2023-07-13T06:54:00;98411.97;;;24.86;69.30
54936;BME280;40838;50.676;7.838;2023-07-13T06:56:30;98415.44;;;26.19;61.01
54936;BME280;40838;50.676;7.838;2023-07-13T06:59:00;98416.75;;;23.67;68.80
54936;BME280;40838;50.676;7.838;2023-07-13T07:01:27;98416.41;;;23.02;74.83
54936;BME280;40838;50.676;7.838;2023-07-13T07:03:54;98418.31;;;24.78;69.84
54936;BME280;40838;50.676;7.838;2023-07-13T07:06:24;98430.53;;;23.53;71.69
54936;BME280;40838;50.676;7.838;2023-07-13T07:08:51;98420.56;;;24.76;67.03
54936;BME280;40838;50.676;7.838;2023-07-13T07:11:19;98423.00;;;24.04;69.71
54936;BME280;40838;50.676;7.838;2023-07-13T07:13:47;98422.28;;;23.83;70.72
54936;BME280;40838;50.676;7.838;2023-07-13T07:16:18;98423.81;;;23.59;70.47
54936;BME280;40838;50.676;7.838;2023-07-13T07:18:48;98420.22;;;21.26;85.37
54936;BME280;40838;50.676;7.838;2023-07-13T07:21:15;98420.97;;;20.49;88.27
54936;BME280;40838;50.676;7.838;2023-07-13T07:23:52;98426.91;;;19.57;94.82
54936;BME280;40838;50.676;7.838;2023-07-13T07:26:25;98420.94;;;21.62;84.93
54936;BME280;40838;50.676;7.838;2023-07-13T07:28:53;98419.75;;;21.07;87.84
54936;BME280;40838;50.676;7.838;2023-07-13T07:31:23;98422.41;;;20.63;86.51
54936;BME280;40838;50.676;7.838;2023-07-13T07:33:50;98427.53;;;21.90;81.49
54936;BME280;40838;50.676;7.838;2023-07-13T07:38:59;98431.13;;;23.92;73.63
54936;BME280;40838;50.676;7.838;2023-07-13T07:41:26;98422.78;;;23.51;69.98
54936;BME280;40838;50.676;7.838;2023-07-13T07:43:53;98424.31;;;20.80;84.53
54936;BME280;40838;50.676;7.838;2023-07-13T07:46:21;98430.63;;;20.58;87.96
54936;BME280;40838;50.676;7.838;2023-07-13T07:48:51;98430.16;;;20.56;85.85
54936;BME280;40838;50.676;7.838;2023-07-13T07:51:18;98432.75;;;21.87;81.71
54936;BME280;40838;50.676;7.838;2023-07-13T07:53:44;98436.81;;;20.68;85.54
54936;BME280;40838;50.676;7.838;2023-07-13T07:56:19;98441.13;;;20.95;84.38
54936;BME280;40838;50.676;7.838;2023-07-13T07:58:46;98425.91;;;21.25;84.01
54936;BME280;40838;50.676;7.838;2023-07-13T08:01:13;98428.91;;;21.41;82.98
54936;BME280;40838;50.676;7.838;2023-07-13T08:03:43;98437.69;;;20.37;84.36
54936;BME280;40838;50.676;7.838;2023-07-13T08:06:23;98442.56;;;22.30;79.56
54936;BME280;40838;50.676;7.838;2023-07-13T08:08:50;98434.06;;;21.81;81.28
54936;BME280;40838;50.676;7.838;2023-07-13T08:11:21;98437.13;;;21.44;82.83
54936;BME280;40838;50.676;7.838;2023-07-13T08:13:49;98444.38;;;20.48;87.94
54936;BME280;40838;50.676;7.838;2023-07-13T08:16:18;98439.34;;;21.51;84.35
54936;BME280;40838;50.676;7.838;2023-07-13T08:18:45;98436.69;;;21.25;83.31
54936;BME280;40838;50.676;7.838;2023-07-13T08:21:11;98430.28;;;21.73;79.85
54936;BME280;40838;50.676;7.838;2023-07-13T08:23:40;98434.56;;;21.57;84.15
54936;BME280;40838;50.676;7.838;2023-07-13T08:26:09;98436.47;;;21.73;83.07
54936;BME280;40838;50.676;7.838;2023-07-13T08:28:37;98436.47;;;21.65;77.89
54936;BME280;40838;50.676;7.838;2023-07-13T08:31:04;98444.09;;;20.58;83.33
54936;BME280;40838;50.676;7.838;2023-07-13T08:33:34;98437.63;;;21.46;82.02
54936;BME280;40838;50.676;7.838;2023-07-13T08:36:01;98435.91;;;21.97;78.50
54936;BME280;40838;50.676;7.838;2023-07-13T08:38:40;98439.06;;;21.00;82.20
54936;BME280;40838;50.676;7.838;2023-07-13T08:41:12;98439.56;;;21.93;79.42
54936;BME280;40838;50.676;7.838;2023-07-13T08:43:41;98436.47;;;22.92;74.96
54936;BME280;40838;50.676;7.838;2023-07-13T08:46:13;98438.38;;;22.50;76.40
54936;BME280;40838;50.676;7.838;2023-07-13T08:48:44;98437.47;;;22.37;77.91
54936;BME280;40838;50.676;7.838;2023-07-13T08:51:25;98436.59;;;22.15;77.17
54936;BME280;40838;50.676;7.838;2023-07-13T08:53:59;98435.88;;;21.24;79.24
54936;BME280;40838;50.676;7.838;2023-07-13T08:56:28;98436.47;;;22.41;77.10
54936;BME280;40838;50.676;7.838;2023-07-13T08:58:57;98440.88;;;20.39;85.01
54936;BME280;40838;50.676;7.838;2023-07-13T09:01:29;98431.16;;;20.95;81.87
54936;BME280;40838;50.676;7.838;2023-07-13T09:04:04;98440.44;;;21.59;81.25
54936;BME280;40838;50.676;7.838;2023-07-13T09:06:42;98429.41;;;20.91;86.47
54936;BME280;40838;50.676;7.838;2023-07-13T09:09:28;98426.22;;;20.14;85.10
54936;BME280;40838;50.676;7.838;2023-07-13T09:12:02;98416.28;;;20.98;84.46
54936;BME280;40838;50.676;7.838;2023-07-13T09:14:42;98421.63;;;21.97;81.53
54936;BME280;40838;50.676;7.838;2023-07-13T09:17:17;98431.09;;;21.47;80.91
54936;BME280;40838;50.676;7.838;2023-07-13T09:19:49;98424.88;;;22.50;75.94
54936;BME280;40838;50.676;7.838;2023-07-13T09:22:21;98426.66;;;23.75;71.73
54936;BME280;40838;50.676;7.838;2023-07-13T09:24:57;98416.94;;;22.95;73.44
54936;BME280;40838;50.676;7.838;2023-07-13T09:27:30;98420.41;;;23.95;68.27
54936;BME280;40838;50.676;7.838;2023-07-13T09:30:05;98420.94;;;22.89;71.85
54936;BME280;40838;50.676;7.838;2023-07-13T09:32:52;98414.03;;;23.67;71.10
54936;BME280;40838;50.676;7.838;2023-07-13T09:35:21;98417.00;;;23.07;70.38
54936;BME280;40838;50.676;7.838;2023-07-13T09:37:49;98415.81;;;21.86;78.04
54936;BME280;40838;50.676;7.838;2023-07-13T09:40:23;98416.78;;;22.92;77.46
54936;BME280;40838;50.676;7.838;2023-07-13T09:42:54;98412.56;;;23.03;74.06
54936;BME280;40838;50.676;7.838;2023-07-13T09:45:27;98425.63;;;21.09;82.93
54936;BME280;40838;50.676;7.838;2023-07-13T09:48:14;98426.47;;;22.42;78.14
54936;BME280;40838;50.676;7.838;2023-07-13T09:50:48;98427.03;;;23.86;66.73
54936;BME280;40838;50.676;7.838;2023-07-13T09:53:19;98423.88;;;24.20;68.72
54936;BME280;40838;50.676;7.838;2023-07-13T09:55:50;98430.78;;;24.30;65.64
54936;BME280;40838;50.676;7.838;2023-07-13T09:58:19;98437.72;;;22.95;68.84
54936;BME280;40838;50.676;7.838;2023-07-13T10:00:57;98421.50;;;24.56;66.93
54936;BME280;40838;50.676;7.838;2023-07-13T10:03:26;98421.88;;;24.30;65.96
54936;BME280;40838;50.676;7.838;2023-07-13T10:05:54;98422.66;;;24.06;64.48
54936;BME280;40838;50.676;7.838;2023-07-13T10:08:24;98416.22;;;23.40;67.82
54936;BME280;40838;50.676;7.838;2023-07-13T10:11:12;98420.78;;;22.43;76.87
54936;BME280;40838;50.676;7.838;2023-07-13T10:13:44;98408.94;;;23.65;73.58
54936;BME280;40838;50.676;7.838;2023-07-13T10:18:50;98412.13;;;25.18;64.04
54936;BME280;40838;50.676;7.838;2023-07-13T10:21:30;98409.13;;;24.55;64.76
54936;BME280;40838;50.676;7.838;2023-07-13T10:24:04;98413.25;;;23.66;66.20
54936;BME280;40838;50.676;7.838;2023-07-13T10:26:36;98400.19;;;23.68;68.21
54936;BME280;40838;50.676;7.838;2023-07-13T10:29:22;98410.59;;;22.91;68.50
54936;BME280;40838;50.676;7.838;2023-07-13T10:31:51;98418.03;;;21.93;73.80
54936;BME280;40838;50.676;7.838;2023-07-13T10:34:18;98418.28;;;21.53;75.57
54936;BME280;40838;50.676;7.838;2023-07-13T10:36:47;98422.13;;;20.82;79.40
54936;BME280;40838;50.676;7.838;2023-07-13T10:39:17;98426.06;;;20.68;81.33
54936;BME280;40838;50.676;7.838;2023-07-13T10:41:50;98423.00;;;21.56;79.68
54936;BME280;40838;50.676;7.838;2023-07-13T10:44:23;98435.38;;;22.04;76.81
54936;BME280;40838;50.676;7.838;2023-07-13T10:46:58;98421.97;;;23.96;66.53
54936;BME280;40838;50.676;7.838;2023-07-13T10:49:27;98420.78;;;25.24;61.93
54936;BME280;40838;50.676;7.838;2023-07-13T10:51:54;98425.56;;;23.88;65.43
54936;BME280;40838;50.676;7.838;2023-07-13T10:54:26;98417.38;;;23.51;67.31
54936;BME280;40838;50.676;7.838;2023-07-13T10:57:10;98417.66;;;23.04;70.78
54936;BME280;40838;50.676;7.838;2023-07-13T10:59:43;98440.34;;;22.32;74.06
54936;BME280;40838;50.676;7.838;2023-07-13T11:02:22;98428.72;;;22.40;72.43
54936;BME280;40838;50.676;7.838;2023-07-13T11:04:53;98425.25;;;24.27;67.11
54936;BME280;40838;50.676;7.838;2023-07-13T11:07:22;98429.19;;;25.34;62.09
54936;BME280;40838;50.676;7.838;2023-07-13T11:10:05;98441.41;;;23.32;67.71
54936;BME280;40838;50.676;7.838;2023-07-13T11:12:56;98446.22;;;22.84;70.29
54936;BME280;40838;50.676;7.838;2023-07-13T11:15:47;98441.66;;;22.55;68.14
54936;BME280;40838;50.676;7.838;2023-07-13T11:18:21;98443.91;;;21.76;73.45
54936;BME280;40838;50.676;7.838;2023-07-13T11:20:49;98437.59;;;22.70;71.46
54936;BME280;40838;50.676;7.838;2023-07-13T11:23:28;98434.50;;;23.55;66.46
54936;BME280;40838;50.676;7.838;2023-07-13T11:25:56;98422.19;;;24.53;60.58
54936;BME280;40838;50.676;7.838;2023-07-13T11:28:30;98423.69;;;23.89;63.30
54936;BME280;40838;50.676;7.838;2023-07-13T11:31:16;98429.91;;;22.81;64.99
54936;BME280;40838;50.676;7.838;2023-07-13T11:33:51;98437.34;;;23.26;67.17
54936;BME280;40838;50.676;7.838;2023-07-13T11:36:21;98435.22;;;22.69;69.12
54936;BME280;40838;50.676;7.838;2023-07-13T11:38:57;98436.16;;;22.13;70.85
54936;BME280;40838;50.676;7.838;2023-07-13T11:41:28;98431.28;;;21.98;71.36
54936;BME280;40838;50.676;7.838;2023-07-13T11:44:22;98440.84;;;21.87;72.91
54936;BME280;40838;50.676;7.838;2023-07-13T11:46:51;98445.56;;;21.25;76.91
54936;BME280;40838;50.676;7.838;2023-07-13T11:49:29;98442.31;;;21.75;74.38
54936;BME280;40838;50.676;7.838;2023-07-13T11:51:57;98450.41;;;21.58;72.60
54936;BME280;40838;50.676;7.838;2023-07-13T11:54:29;98446.88;;;23.23;70.03
54936;BME280;40838;50.676;7.838;2023-07-13T11:56:57;98435.53;;;23.09;67.33
54936;BME280;40838;50.676;7.838;2023-07-13T11:59:29;98438.38;;;22.41;68.25
54936;BME280;40838;50.676;7.838;2023-07-13T12:01:58;98446.72;;;21.89;73.22
54936;BME280;40838;50.676;7.838;2023-07-13T12:04:27;98436.47;;;21.56;72.67
54936;BME280;40838;50.676;7.838;2023-07-13T12:06:57;98433.81;;;21.47;71.71
54936;BME280;40838;50.676;7.838;2023-07-13T12:09:29;98445.41;;;21.04;73.79
54936;BME280;40838;50.676;7.838;2023-07-13T12:11:57;98441.28;;;21.16;73.88
54936;BME280;40838;50.676;7.838;2023-07-13T12:14:33;98445.09;;;21.06;74.14
54936;BME280;40838;50.676;7.838;2023-07-13T12:17:00;98447.94;;;21.09;73.38
54936;BME280;40838;50.676;7.838;2023-07-13T12:19:28;98438.94;;;22.26;70.35
54936;BME280;40838;50.676;7.838;2023-07-13T12:21:56;98436.72;;;21.89;69.98
54936;BME280;40838;50.676;7.838;2023-07-13T12:24:52;98440.22;;;23.21;69.18
54936;BME280;40838;50.676;7.838;2023-07-13T12:27:22;98451.06;;;23.33;68.21
54936;BME280;40838;50.676;7.838;2023-07-13T12:30:01;98446.75;;;22.18;68.85
54936;BME280;40838;50.676;7.838;2023-07-13T12:32:28;98452.03;;;22.44;68.52
54936;BME280;40838;50.676;7.838;2023-07-13T12:35:04;98459.31;;;21.33;74.52
54936;BME280;40838;50.676;7.838;2023-07-13T12:37:34;98458.56;;;21.06;76.23
54936;BME280;40838;50.676;7.838;2023-07-13T12:40:05;98458.06;;;21.30;72.58
54936;BME280;40838;50.676;7.838;2023-07-13T12:42:46;98472.00;;;20.97;72.96
54936;BME280;40838;50.676;7.838;2023-07-13T12:45:38;98476.59;;;21.40;72.83
54936;BME280;40838;50.676;7.838;2023-07-13T12:48:13;98481.34;;;21.43;74.95
54936;BME280;40838;50.676;7.838;2023-07-13T12:50:45;98480.72;;;21.38;77.20
54936;BME280;40838;50.676;7.838;2023-07-13T12:53:15;98478.56;;;22.34;77.35
54936;BME280;40838;50.676;7.838;2023-07-13T12:55:44;98474.66;;;21.75;74.74
54936;BME280;40838;50.676;7.838;2023-07-13T12:58:17;98478.31;;;21.36;72.38
54936;BME280;40838;50.676;7.838;2023-07-13T13:00:50;98482.38;;;20.90;76.28
54936;BME280;40838;50.676;7.838;2023-07-13T13:03:29;98482.97;;;20.61;77.08
54936;BME280;40838;50.676;7.838;2023-07-13T13:06:00;98479.28;;;21.05;77.13
54936;BME280;40838;50.676;7.838;2023-07-13T13:08:28;98478.44;;;21.57;71.50
54936;BME280;40838;50.676;7.838;2023-07-13T13:10:55;98472.28;;;22.12;72.53
54936;BME280;40838;50.676;7.838;2023-07-13T13:13:25;98475.78;;;23.23;66.29
54936;BME280;40838;50.676;7.838;2023-07-13T13:15:55;98478.94;;;23.46;63.75
54936;BME280;40838;50.676;7.838;2023-07-13T13:18:24;98477.72;;;23.22;63.67
54936;BME280;40838;50.676;7.838;2023-07-13T13:20:51;98474.69;;;22.52;66.25